Michalis L — A8TZ8 — position and weather

sailwx.info

Track history (hours):
 
Tides and Currents Weather Stations Pressure Air Temp Water Temp Dewpoint Dewpoint Depression Visibility Wind Speed Wind Dir Waves Ship Positions

Michalis L

Last reported at 2014-Dec-13 03:12 UTC. Time now 2014-Dec-23 04:24 UTC.
Position S 24°25' W 046°11'.
Warning: this ship's position is 10 days out of date.

Length 230 m; draft 13.9 m.

Type: Cargo ship. MMSI: 636014462.

Date/timePositionNaut miles runAvg speedWind from/ knotsBaromVisibWave heightAir tempDewpointWater temp
2014-Dec-13 03:12S 24°25' W 046°11'1910.7
2014-Dec-13 01:28S 24°09' W 046°23'9 9.5
2014-Dec-13 00:33S 24°01' W 046°20'4 3.7
2014-Dec-12 23:29S 23°58' W 046°17'0 0.0
2014-Dec-12 22:29S 23°58' W 046°17'0 0.0
2014-Dec-12 21:29S 23°58' W 046°17'0 0.0
2014-Dec-12 20:29S 23°58' W 046°17'0 0.0
2014-Dec-12 19:29S 23°58' W 046°17'0 0.0
2014-Dec-12 18:29S 23°58' W 046°17'0 0.0
2014-Dec-12 17:29S 23°58' W 046°17'0 0.0
2014-Dec-12 16:29S 23°58' W 046°17'0 0.0
2014-Dec-12 15:32S 23°58' W 046°17'0 0.0
2014-Dec-12 14:32S 23°58' W 046°17'0 0.0
2014-Dec-12 13:29S 23°58' W 046°17'0 0.0
2014-Dec-12 12:29S 23°58' W 046°17'0 0.0
2014-Dec-12 11:32S 23°58' W 046°17'0 0.0
2014-Dec-12 10:29S 23°58' W 046°17'0 0.0
2014-Dec-12 09:32S 23°58' W 046°17'0 0.0
2014-Dec-12 08:32S 23°58' W 046°17'0 0.0
2014-Dec-12 07:29S 23°58' W 046°17'0 0.0
2014-Dec-12 06:32S 23°58' W 046°17'0 0.0
2014-Dec-12 05:32S 23°58' W 046°17'0 0.0
2014-Dec-12 04:29S 23°58' W 046°17'0 0.0
2014-Dec-12 03:32S 23°58' W 046°17'0 0.0
2014-Dec-12 02:29S 23°58' W 046°17'0 0.0
2014-Dec-12 01:29S 23°58' W 046°17'0 0.0
2014-Dec-12 00:29S 23°58' W 046°17'0 0.0
2014-Dec-11 23:29S 23°58' W 046°17'0 0.0
2014-Dec-11 22:29S 23°58' W 046°17'0 0.0
2014-Dec-11 21:29S 23°58' W 046°17'0 0.0
2014-Dec-11 20:32S 23°58' W 046°17'0 0.0
2014-Dec-11 19:29S 23°58' W 046°17'0 0.0
2014-Dec-11 18:32S 23°58' W 046°17'0 0.0
2014-Dec-11 17:32S 23°58' W 046°17'0 0.0
2014-Dec-11 16:29S 23°58' W 046°17'0 0.0
2014-Dec-11 15:29S 23°58' W 046°17'0 0.0
2014-Dec-11 14:29S 23°58' W 046°17'0 0.0
2014-Dec-11 13:29S 23°58' W 046°17'0 0.0
2014-Dec-11 12:32S 23°58' W 046°17'0 0.0
2014-Dec-11 11:29S 23°58' W 046°17'0 0.0
2014-Dec-11 10:29S 23°58' W 046°17'0 0.0
2014-Dec-11 09:26S 23°58' W 046°17'0 0.0
2014-Dec-11 08:32S 23°58' W 046°17'0 0.0
2014-Dec-11 07:26S 23°58' W 046°17'0 0.0
2014-Dec-11 06:29S 23°58' W 046°17'0 0.0
2014-Dec-11 05:29S 23°58' W 046°17'0 0.0
2014-Dec-11 04:32S 23°58' W 046°17'0 0.0
2014-Dec-11 03:29S 23°58' W 046°17'0 0.0
2014-Dec-11 02:26S 23°58' W 046°17'0 0.0
2014-Dec-11 01:29S 23°58' W 046°17'0 0.0
2014-Dec-11 00:29S 23°58' W 046°17'0 0.0
2014-Dec-10 23:29S 23°58' W 046°17'0 0.0
2014-Dec-10 22:29S 23°58' W 046°17'0 0.0
2014-Dec-10 21:29S 23°58' W 046°17'0 0.0
2014-Dec-10 20:29S 23°58' W 046°17'0 0.0
2014-Dec-10 19:32S 23°58' W 046°17'0 0.0
2014-Dec-10 18:32S 23°58' W 046°17'0 0.1
2014-Dec-10 17:33S 23°58' W 046°17'3 3.2
2014-Dec-10 16:31S 24°01' W 046°20'0 0.1
2014-Dec-10 15:31S 24°01' W 046°20'0 0.1
2014-Dec-10 14:31S 24°01' W 046°20'0 0.0
2014-Dec-10 13:31S 24°01' W 046°20'0 0.2
2014-Dec-10 12:31S 24°01' W 046°20'2 2.3
2014-Dec-10 11:33S 24°03' W 046°21'1110.7
2014-Dec-10 10:32S 24°14' W 046°21'  
Track history (hours):
 
Tides and Currents Weather Stations Pressure Air Temp Water Temp Dewpoint Dewpoint Depression Visibility Wind Speed Wind Dir Waves Ship Positions

Michalis L

Last reported at 2014-Dec-13 03:12 UTC. Time now 2014-Dec-23 04:24 UTC.
Position S 24°25' W 046°11'.
Warning: this ship's position is 10 days out of date.

Length 230 m; draft 13.9 m.

Type: Cargo ship. MMSI: 636014462.

Date/timePositionNaut miles runAvg speedWind from/ knotsBaromVisibWave heightAir tempDewpointWater temp
2014-Dec-13 03:12S 24°25' W 046°11'1910.7
2014-Dec-13 01:28S 24°09' W 046°23'9 9.5
2014-Dec-13 00:33S 24°01' W 046°20'4 3.7
2014-Dec-12 23:29S 23°58' W 046°17'0 0.0
2014-Dec-12 22:29S 23°58' W 046°17'0 0.0
2014-Dec-12 21:29S 23°58' W 046°17'0 0.0
2014-Dec-12 20:29S 23°58' W 046°17'0 0.0
2014-Dec-12 19:29S 23°58' W 046°17'0 0.0
2014-Dec-12 18:29S 23°58' W 046°17'0 0.0
2014-Dec-12 17:29S 23°58' W 046°17'0 0.0
2014-Dec-12 16:29S 23°58' W 046°17'0 0.0
2014-Dec-12 15:32S 23°58' W 046°17'0 0.0
2014-Dec-12 14:32S 23°58' W 046°17'0 0.0
2014-Dec-12 13:29S 23°58' W 046°17'0 0.0
2014-Dec-12 12:29S 23°58' W 046°17'0 0.0
2014-Dec-12 11:32S 23°58' W 046°17'0 0.0
2014-Dec-12 10:29S 23°58' W 046°17'0 0.0
2014-Dec-12 09:32S 23°58' W 046°17'0 0.0
2014-Dec-12 08:32S 23°58' W 046°17'0 0.0
2014-Dec-12 07:29S 23°58' W 046°17'0 0.0
2014-Dec-12 06:32S 23°58' W 046°17'0 0.0
2014-Dec-12 05:32S 23°58' W 046°17'0 0.0
2014-Dec-12 04:29S 23°58' W 046°17'0 0.0
2014-Dec-12 03:32S 23°58' W 046°17'0 0.0
2014-Dec-12 02:29S 23°58' W 046°17'0 0.0
2014-Dec-12 01:29S 23°58' W 046°17'0 0.0
2014-Dec-12 00:29S 23°58' W 046°17'0 0.0
2014-Dec-11 23:29S 23°58' W 046°17'0 0.0
2014-Dec-11 22:29S 23°58' W 046°17'0 0.0
2014-Dec-11 21:29S 23°58' W 046°17'0 0.0
2014-Dec-11 20:32S 23°58' W 046°17'0 0.0
2014-Dec-11 19:29S 23°58' W 046°17'0 0.0
2014-Dec-11 18:32S 23°58' W 046°17'0 0.0
2014-Dec-11 17:32S 23°58' W 046°17'0 0.0
2014-Dec-11 16:29S 23°58' W 046°17'0 0.0
2014-Dec-11 15:29S 23°58' W 046°17'0 0.0
2014-Dec-11 14:29S 23°58' W 046°17'0 0.0
2014-Dec-11 13:29S 23°58' W 046°17'0 0.0
2014-Dec-11 12:32S 23°58' W 046°17'0 0.0
2014-Dec-11 11:29S 23°58' W 046°17'0 0.0
2014-Dec-11 10:29S 23°58' W 046°17'0 0.0
2014-Dec-11 09:26S 23°58' W 046°17'0 0.0
2014-Dec-11 08:32S 23°58' W 046°17'0 0.0
2014-Dec-11 07:26S 23°58' W 046°17'0 0.0
2014-Dec-11 06:29S 23°58' W 046°17'0 0.0
2014-Dec-11 05:29S 23°58' W 046°17'0 0.0
2014-Dec-11 04:32S 23°58' W 046°17'0 0.0
2014-Dec-11 03:29S 23°58' W 046°17'0 0.0
2014-Dec-11 02:26S 23°58' W 046°17'0 0.0
2014-Dec-11 01:29S 23°58' W 046°17'0 0.0
2014-Dec-11 00:29S 23°58' W 046°17'0 0.0
2014-Dec-10 23:29S 23°58' W 046°17'0 0.0
2014-Dec-10 22:29S 23°58' W 046°17'0 0.0
2014-Dec-10 21:29S 23°58' W 046°17'0 0.0
2014-Dec-10 20:29S 23°58' W 046°17'0 0.0
2014-Dec-10 19:32S 23°58' W 046°17'0 0.0
2014-Dec-10 18:32S 23°58' W 046°17'0 0.1
2014-Dec-10 17:33S 23°58' W 046°17'3 3.2
2014-Dec-10 16:31S 24°01' W 046°20'0 0.1
2014-Dec-10 15:31S 24°01' W 046°20'0 0.1
2014-Dec-10 14:31S 24°01' W 046°20'0 0.0
2014-Dec-10 13:31S 24°01' W 046°20'0 0.2
2014-Dec-10 12:31S 24°01' W 046°20'2 2.3
2014-Dec-10 11:33S 24°03' W 046°21'1110.7
2014-Dec-10 10:32S 24°14' W 046°21'  

Dump ship's entire track history